Jamestown, Tennessee
Current Conditions -  °F | °C
As of 8:56 AM on Friday 28 Nov 2014 (Local Time) from KEKQ Reporting Station
Clear Clear  
Wind Chill: 24°   Ceiling: Unl
Heat Index: 30°   Visibility: 10mi
Dew Point: 20°   Wind: 6mph
Humidity: 67%   Direction: 130°SE
Pressure: 30.45"   Gusts: NA
Location:  36.43°N, 84.93°W
Report Text: KEKQ 281456Z AUTO 13005KT 10SM CLR M01/M07 A3045 RMK AO2 50001 T10111066 SLP323
Loading
Personal Weather Stations






























Interactive Weather Map New forecast layout! Learn more

10-Day Weather Forecast

Advertisements
Track Severe Weather on mobile